Weather History for Grants-Milan, NM

Change the Weather History Date:

Wednesday, November 21, 2012

  Actual Average Record
Temperature  
Mean Temperature 42 °F -  
Max Temperature 64 °F 54 °F 68 °F (1996)
Min Temperature 20 °F 19 °F 0 °F (1956)
Degree Days  
Heating Degree Days 23    
Moisture  
Dew Point 16 °F    
Average Humidity 42    
Maximum Humidity 64    
Minimum Humidity 17    
Precipitation  
Precipitation 0.00 in - - ()
Sea Level Pressure  
Sea Level Pressure 30.25 in    
Wind  
Wind Speed 4 mph (WNW)    
Max Wind Speed 12 mph    
Max Gust Speed 17 mph    
Visibility 10 miles    
Events      
Averages and records for this station are not official NWS values.
T = Trace of Precipitation, MM = Missing Value Source: NWS Daily Summary

Daily Weather History Graph

Daily Weather History Graph

Search for Another Location

Airport:

Trip Planner

Search our weather history database for the weather conditions in past years. The results will help you decide how hot, cold, wet, or windy it might be!

Date:

Astronomy

Nov. 21, 2012 Rise Set
Actual Time 6:52 AM MST 5:02 PM MST
Civil Twilight 6:25 AM MST 5:29 PM MST
Nautical Twilight 5:54 AM MST 6:00 PM MST
Astronomical Twilight 5:24 AM MST 6:30 PM MST
Moon 1:07 PM MST 12:28 AM MST
Length of Visible Light 11h 04m
Length of Day
10h 09m
Waxing Gibbous, 62% of the Moon is Illuminated
Nov 21
Waxing Gibbous
Nov 28
Full
Dec 6
Last Quarter
Dec 13
New
Dec 19
First Quarter

Hourly Weather History & Observations

Time (MST) Temp. Windchill Dew Point Humidity Pressure Visibility Wind Dir Wind Speed Gust Speed Precip Events Conditions
12:15 AM 25.5 °F - 7.3 °F 46% 30.32 in 10.0 mi Calm Calm - N/A   Clear
12:35 AM 22.6 °F 15.3 °F 7.7 °F 53% 30.31 in 10.0 mi NW 5.8 mph - N/A   Clear
12:55 AM 25.0 °F 19.3 °F 7.3 °F 47% 30.31 in 10.0 mi NNW 4.6 mph - N/A   Clear
1:15 AM 24.3 °F 17.3 °F 7.7 °F 49% 30.30 in 10.0 mi NW 5.8 mph - N/A   Clear
1:35 AM 24.8 °F 17.9 °F 7.7 °F 48% 30.30 in 10.0 mi NW 5.8 mph - N/A   Clear
1:55 AM 25.0 °F 18.1 °F 8.4 °F 50% 30.30 in 10.0 mi NW 5.8 mph - N/A   Clear
2:15 AM 25.5 °F 21.3 °F 8.6 °F 49% 30.30 in 10.0 mi NNW 3.5 mph - N/A   Clear
2:35 AM 24.8 °F 19.1 °F 9.3 °F 52% 30.30 in 10.0 mi WNW 4.6 mph - N/A   Clear
2:55 AM 25.7 °F 20.1 °F 9.5 °F 50% 30.30 in 10.0 mi WNW 4.6 mph - N/A   Clear
3:15 AM 23.9 °F 18.0 °F 9.3 °F 54% 30.30 in 10.0 mi NW 4.6 mph - N/A   Clear
3:35 AM 22.6 °F 18.0 °F 9.1 °F 56% 30.29 in 10.0 mi NW 3.5 mph - N/A   Clear
3:55 AM 20.3 °F 13.8 °F 8.4 °F 60% 30.28 in 10.0 mi NNW 4.6 mph - N/A   Clear
4:15 AM 21.4 °F 12.8 °F 8.6 °F 58% 30.29 in 10.0 mi NW 6.9 mph - N/A   Clear
4:35 AM 22.6 °F 16.5 °F 9.5 °F 57% 30.29 in 10.0 mi NW 4.6 mph - N/A   Clear
4:55 AM 23.9 °F 15.8 °F 9.3 °F 54% 30.30 in 10.0 mi NNW 6.9 mph - N/A   Clear
5:15 AM 23.2 °F 18.7 °F 9.0 °F 55% 30.30 in 10.0 mi North 3.5 mph - N/A   Clear
5:35 AM 22.8 °F 18.2 °F 9.0 °F 55% 30.29 in 10.0 mi NNW 3.5 mph - N/A   Clear
5:55 AM 22.1 °F 13.7 °F 9.5 °F 58% 30.29 in 10.0 mi WNW 6.9 mph - N/A   Clear
6:15 AM 21.9 °F 15.7 °F 9.1 °F 58% 30.29 in 10.0 mi NW 4.6 mph - N/A   Clear
6:35 AM 21.4 °F 13.8 °F 9.0 °F 59% 30.29 in 10.0 mi NNW 5.8 mph - N/A   Clear
6:55 AM 20.3 °F 13.8 °F 9.3 °F 63% 30.30 in 10.0 mi NW 4.6 mph - N/A   Clear
7:15 AM 21.0 °F 13.4 °F 9.5 °F 61% 30.30 in 10.0 mi NNW 5.8 mph - N/A   Clear
7:35 AM 22.6 °F 18.0 °F 9.5 °F 57% 30.31 in 10.0 mi NW 3.5 mph - N/A   Clear
7:55 AM 25.0 °F 20.7 °F 11.1 °F 56% 30.32 in 10.0 mi WNW 3.5 mph - N/A   Clear
8:15 AM 28.9 °F 22.8 °F 11.8 °F 49% 30.32 in 10.0 mi NW 5.8 mph - N/A   Clear
8:35 AM 32.0 °F 27.5 °F 12.6 °F 45% 30.32 in 10.0 mi NNW 4.6 mph - N/A   Clear
9:15 AM 38.5 °F 35.0 °F 12.9 °F 35% 30.31 in 10.0 mi NW 4.6 mph - N/A   Clear
9:35 AM 41.0 °F - 14.4 °F 34% 30.31 in 10.0 mi Calm Calm - N/A   Clear
9:55 AM 43.3 °F - 14.9 °F 32% 30.30 in 10.0 mi Calm Calm - N/A   Clear
10:15 AM 46.8 °F - 15.8 °F 29% 30.30 in 10.0 mi Calm Calm - N/A   Clear
10:35 AM 50.2 °F - 16.7 °F 27% 30.30 in 10.0 mi SE 3.5 mph - N/A   Clear
10:55 AM 50.4 °F - 18.0 °F 28% 30.29 in 10.0 mi SE 6.9 mph - N/A   Clear
11:15 AM 51.8 °F - 18.0 °F 26% 30.28 in 10.0 mi SE 9.2 mph - N/A   Clear
11:35 AM 52.9 °F - 19.8 °F 27% 30.26 in 10.0 mi ESE 11.5 mph - N/A   Clear
11:55 AM 53.6 °F - 22.3 °F 30% 30.24 in 10.0 mi ESE 9.2 mph - N/A   Clear
12:15 PM 55.2 °F - 23.4 °F 29% 30.24 in 10.0 mi ESE 8.1 mph - N/A   Clear
12:35 PM 59.0 °F - 28.2 °F 31% 30.22 in 10.0 mi ESE 8.1 mph - N/A   Clear
12:55 PM 59.9 °F - 28.4 °F 30% 30.21 in 10.0 mi East 6.9 mph - N/A   Clear
1:15 PM 62.8 °F - 28.0 °F 27% 30.20 in 10.0 mi SW 6.9 mph - N/A   Clear
1:35 PM 63.3 °F - 23.9 °F 22% 30.20 in 10.0 mi South 10.4 mph 16.1 mph N/A   Clear
1:55 PM 64.6 °F - 23.9 °F 21% 30.19 in 10.0 mi SW 10.4 mph 17.3 mph N/A   Clear
2:15 PM 63.0 °F - 24.3 °F 23% 30.18 in 10.0 mi SW 8.1 mph - N/A   Clear
2:35 PM 63.1 °F - 24.4 °F 23% 30.18 in 10.0 mi Calm Calm - N/A   Clear
2:55 PM 63.1 °F - 23.0 °F 22% 30.18 in 10.0 mi NW 4.6 mph - N/A   Clear
3:15 PM 63.5 °F - 22.6 °F 21% 30.17 in 10.0 mi SW 5.8 mph - N/A   Clear
3:35 PM 64.6 °F - 18.5 °F 17% 30.17 in 10.0 mi SW 6.9 mph - N/A   Clear
3:55 PM 64.4 °F - 17.8 °F 17% 30.17 in 10.0 mi WSW 5.8 mph - N/A   Clear
4:15 PM 63.1 °F - 19.4 °F 19% 30.17 in 10.0 mi WSW 5.8 mph - N/A   Clear
4:35 PM 61.3 °F - 20.1 °F 20% 30.17 in 10.0 mi Calm Calm - N/A   Clear
4:55 PM 51.1 °F - 20.3 °F 30% 30.17 in 10.0 mi Calm Calm - N/A   Clear
5:15 PM 49.5 °F - 19.0 °F 30% 30.18 in 10.0 mi WSW 6.9 mph - N/A   Clear
5:35 PM 50.2 °F - 17.8 °F 28% 30.18 in 10.0 mi WSW 8.1 mph - N/A   Clear
5:55 PM 48.4 °F - 17.6 °F 29% 30.18 in 10.0 mi SW 6.9 mph - N/A   Clear
6:15 PM 47.3 °F - 17.4 °F 30% 30.18 in 10.0 mi SW 5.8 mph - N/A   Clear
6:35 PM 43.0 °F - 17.6 °F 36% 30.20 in 10.0 mi Calm Calm - N/A   Clear
6:55 PM 44.4 °F 42.9 °F 18.3 °F 35% 30.20 in 10.0 mi East 3.5 mph - N/A   Clear
7:15 PM 43.7 °F 40.3 °F 18.1 °F 36% 30.20 in 10.0 mi SE 5.8 mph - N/A   Clear
7:35 PM 44.1 °F - 19.2 °F 37% 30.21 in 10.0 mi Calm Calm - N/A   Clear
7:55 PM 38.7 °F 35.2 °F 17.6 °F 43% 30.22 in 10.0 mi NW 4.6 mph - N/A   Clear
8:15 PM 38.3 °F 34.8 °F 17.1 °F 42% 30.22 in 10.0 mi WNW 4.6 mph - N/A   Clear
8:35 PM 39.6 °F 35.4 °F 17.6 °F 41% 30.22 in 10.0 mi WNW 5.8 mph - N/A   Clear
8:55 PM 40.3 °F - 18.5 °F 42% 30.22 in 10.0 mi Calm Calm - N/A   Clear
9:15 PM 34.3 °F - 17.4 °F 50% 30.22 in 10.0 mi Calm Calm - N/A   Clear
9:35 PM 31.5 °F - 17.2 °F 56% 30.22 in 10.0 mi Calm Calm - N/A   Clear
9:55 PM 28.2 °F 23.1 °F 15.4 °F 59% 30.23 in 10.0 mi NW 4.6 mph - N/A   Clear
10:15 PM 30.4 °F 26.9 °F 16.5 °F 56% 30.22 in 10.0 mi NNW 3.5 mph - N/A   Clear
10:35 PM 29.7 °F 26.1 °F 18.1 °F 62% 30.22 in 10.0 mi WNW 3.5 mph - N/A   Clear
10:55 PM 28.2 °F 24.4 °F 15.8 °F 60% 30.23 in 10.0 mi NNW 3.5 mph - N/A   Clear
11:15 PM 28.8 °F 25.0 °F 16.7 °F 61% 30.22 in 10.0 mi ENE 3.5 mph - N/A   Clear
11:35 PM 25.7 °F 20.1 °F 15.1 °F 64% 30.23 in 10.0 mi NNW 4.6 mph - N/A   Clear
11:55 PM 27.1 °F 20.7 °F 16.5 °F 64% 30.23 in 10.0 mi WNW 5.8 mph - N/A   Clear